createdAt,value
2019-01-06T00:01:05.504Z,14.10
2019-01-06T00:06:11.733Z,13.20
2019-01-06T00:11:26.720Z,11.27
2019-01-06T00:16:32.398Z,9.60
2019-01-06T00:21:54.399Z,8.63
2019-01-06T00:27:00.466Z,8.57
2019-01-06T00:32:12.435Z,12.07
2019-01-06T00:37:34.329Z,10.57
2019-01-06T00:42:56.194Z,11.00
2019-01-06T00:48:11.111Z,10.37
2019-01-06T00:53:33.322Z,9.93
2019-01-06T00:58:39.681Z,12.47
2019-01-06T01:04:02.072Z,14.10
2019-01-06T01:09:43.336Z,10.70
2019-01-06T01:15:05.769Z,13.67
2019-01-06T01:20:14.172Z,18.70
2019-01-06T01:25:36.088Z,13.88
2019-01-06T01:30:45.714Z,15.50
2019-01-06T01:36:09.420Z,17.87
2019-01-06T01:41:18.122Z,17.07
2019-01-06T01:46:23.850Z,18.30
2019-01-06T01:51:45.883Z,16.17
2019-01-06T01:57:09.879Z,14.07
2019-01-06T02:02:18.557Z,16.10
2019-01-06T02:07:40.209Z,16.43
2019-01-06T02:13:02.373Z,16.40
2019-01-06T02:18:23.584Z,14.67
2019-01-06T02:23:45.982Z,14.80
2019-01-06T02:29:08.189Z,19.67
2019-01-06T02:34:20.169Z,18.03
2019-01-06T02:39:26.451Z,19.53
2019-01-06T02:44:48.313Z,18.37
2019-01-06T02:50:09.363Z,18.27
2019-01-06T02:55:27.404Z,19.00
2019-01-06T03:00:44.997Z,20.30
2019-01-06T03:06:07.228Z,24.92
2019-01-06T03:11:22.223Z,22.63
2019-01-06T03:16:44.755Z,23.43
2019-01-06T03:21:50.719Z,26.03
2019-01-06T03:27:12.071Z,26.03
2019-01-06T03:32:33.994Z,22.43
2019-01-06T03:37:58.036Z,21.47
2019-01-06T03:43:06.677Z,21.60
2019-01-06T03:48:15.476Z,20.17
2019-01-06T03:53:30.434Z,21.00
2019-01-06T03:58:36.735Z,19.50
2019-01-06T04:03:47.961Z,20.13
2019-01-06T04:09:10.180Z,18.87
2019-01-06T04:14:31.027Z,23.73
2019-01-06T04:19:39.712Z,21.67
2019-01-06T04:24:54.428Z,18.80
2019-01-06T04:30:03.210Z,20.37
2019-01-06T04:35:11.902Z,18.37
2019-01-06T04:40:17.920Z,19.30
2019-01-06T04:45:41.954Z,21.30
2019-01-06T04:50:53.642Z,21.57
2019-01-06T04:56:02.836Z,18.50
2019-01-06T05:01:17.823Z,16.70
2019-01-06T05:06:23.839Z,18.87
2019-01-06T05:11:35.780Z,15.40
2019-01-06T05:16:53.818Z,14.80
2019-01-06T05:22:15.410Z,13.30
2019-01-06T05:27:30.567Z,16.62
2019-01-06T05:32:48.886Z,16.30
2019-01-06T05:38:10.835Z,15.40
2019-01-06T05:43:28.651Z,17.27
2019-01-06T05:48:49.603Z,21.87
2019-01-06T05:54:01.208Z,21.60
2019-01-06T05:59:09.964Z,24.83
2019-01-06T06:04:15.699Z,23.93
2019-01-06T06:09:37.997Z,29.77
2019-01-06T06:14:46.863Z,28.43
2019-01-06T06:20:04.888Z,27.40
2019-01-06T06:25:10.988Z,30.40
2019-01-06T06:30:32.677Z,28.43
2019-01-06T06:35:47.530Z,28.43
2019-01-06T06:41:08.450Z,28.87
2019-01-06T06:46:32.564Z,28.02
2019-01-06T06:51:47.327Z,27.80
2019-01-06T06:57:17.427Z,29.60
2019-01-06T07:02:39.642Z,25.12
2019-01-06T07:08:00.564Z,25.07
2019-01-06T07:13:08.962Z,26.68
2019-01-06T07:18:14.775Z,23.50
2019-01-06T07:23:36.941Z,21.57
2019-01-06T07:28:58.958Z,19.50
2019-01-06T07:34:13.614Z,18.73
2019-01-06T07:39:19.591Z,20.00
2019-01-06T07:44:37.295Z,18.60
2019-01-06T07:49:43.260Z,20.00
2019-01-06T07:54:55.204Z,18.00
2019-01-06T08:00:16.178Z,18.87
2019-01-06T08:05:38.304Z,19.83
2019-01-06T08:11:02.713Z,20.07
2019-01-06T08:16:14.382Z,20.87
2019-01-06T08:21:36.249Z,20.93
2019-01-06T08:26:51.194Z,22.20
2019-01-06T08:31:59.888Z,27.53
2019-01-06T08:37:14.855Z,28.60
2019-01-06T08:42:37.014Z,28.93
2019-01-06T08:47:59.010Z,28.37
2019-01-06T08:53:07.630Z,30.23
2019-01-06T08:58:15.997Z,31.83
2019-01-06T09:03:27.978Z,37.80
2019-01-06T09:08:44.599Z,38.07
2019-01-06T09:14:04.348Z,39.83
2019-01-06T09:19:15.998Z,37.93
2019-01-06T09:24:22.005Z,38.07
2019-01-06T09:29:36.914Z,36.57
2019-01-06T09:34:51.711Z,42.30
2019-01-06T09:40:00.166Z,48.30
2019-01-06T09:45:19.344Z,41.57
2019-01-06T09:50:40.545Z,41.97
2019-01-06T09:55:49.185Z,43.27
2019-01-06T10:01:10.252Z,44.73
2019-01-06T10:06:19.301Z,46.37
2019-01-06T10:11:28.176Z,44.73
2019-01-06T10:16:36.499Z,47.50
2019-01-06T10:21:48.292Z,44.53
2019-01-06T10:26:54.300Z,40.13
2019-01-06T10:32:00.044Z,40.27
2019-01-06T10:37:17.800Z,40.87
2019-01-06T10:42:29.734Z,37.15
2019-01-06T10:47:41.508Z,37.27
2019-01-06T10:52:53.047Z,37.27
2019-01-06T10:58:15.705Z,40.23
2019-01-06T11:03:30.601Z,32.70
2019-01-06T11:08:42.098Z,29.17
2019-01-06T11:13:51.050Z,29.60
2019-01-06T11:19:15.301Z,40.47
2019-01-06T11:24:27.088Z,32.00
2019-01-06T11:29:49.779Z,31.73
2019-01-06T11:34:55.809Z,38.97
2019-01-06T11:40:04.192Z,30.35
2019-01-06T11:45:28.545Z,35.33
2019-01-06T11:50:41.702Z,33.83
2019-01-06T11:55:49.122Z,32.40
2019-01-06T12:01:14.423Z,34.80
2019-01-06T12:06:20.434Z,34.87
2019-01-06T12:11:42.518Z,37.30
2019-01-06T12:17:04.868Z,39.37
2019-01-06T12:22:25.680Z,39.70
2019-01-06T12:27:47.587Z,37.40
2019-01-06T12:33:09.788Z,39.47
2019-01-06T12:38:40.921Z,39.33
2019-01-06T12:43:58.971Z,37.20
2019-01-06T12:49:08.087Z,41.10
2019-01-06T12:54:16.902Z,36.03
2019-01-06T12:59:38.011Z,32.93
2019-01-06T13:05:00.491Z,28.70
2019-01-06T13:15:54.436Z,32.80
2019-01-06T13:21:16.794Z,35.73
2019-01-06T13:26:39.690Z,25.13
2019-01-06T13:32:02.245Z,26.23
2019-01-06T13:37:16.899Z,24.03
2019-01-06T13:42:22.925Z,26.57
2019-01-06T13:47:35.071Z,27.57
2019-01-06T13:52:53.246Z,36.50
2019-01-06T13:58:15.282Z,36.73
2019-01-06T14:03:20.977Z,40.33
2019-01-06T14:08:38.911Z,39.60
2019-01-06T14:14:01.398Z,43.03
2019-01-06T14:19:13.409Z,45.93
2019-01-06T14:24:34.309Z,43.83
2019-01-06T14:29:42.727Z,44.33
2019-01-06T14:34:57.119Z,36.33
2019-01-06T14:40:11.830Z,35.90
2019-01-06T14:45:20.322Z,37.17
2019-01-06T14:50:32.688Z,31.17
2019-01-06T14:55:44.284Z,35.30
2019-01-06T15:00:53.400Z,35.43
2019-01-06T15:06:17.277Z,31.67
2019-01-06T15:11:41.999Z,30.15
2019-01-06T15:17:04.295Z,31.93
2019-01-06T15:22:26.638Z,30.80
2019-01-06T15:27:35.613Z,30.60
2019-01-06T15:32:41.966Z,34.53
2019-01-06T15:37:48.203Z,28.97
2019-01-06T15:43:10.372Z,27.80
2019-01-06T15:48:32.857Z,27.13
2019-01-06T15:53:47.592Z,24.37
2019-01-06T15:59:10.293Z,23.93
2019-01-06T16:04:19.486Z,24.07
2019-01-06T16:09:40.327Z,22.33
2019-01-06T16:15:01.110Z,24.67
2019-01-06T16:20:20.127Z,22.87
2019-01-06T16:25:42.277Z,22.40
2019-01-06T16:30:51.222Z,23.22
2019-01-06T16:36:13.739Z,22.40
2019-01-06T16:41:23.137Z,20.17
2019-01-06T16:46:35.008Z,21.23
2019-01-06T16:51:43.862Z,20.57
2019-01-06T16:57:01.671Z,18.07
2019-01-06T17:02:10.386Z,20.03
2019-01-06T17:07:16.426Z,19.27
2019-01-06T17:12:22.210Z,20.93
2019-01-06T17:17:44.774Z,20.77
2019-01-06T17:22:53.568Z,26.33
2019-01-06T17:28:15.814Z,25.97
2019-01-06T17:33:36.982Z,27.20
2019-01-06T17:38:42.979Z,31.93
2019-01-06T17:43:51.843Z,43.40
2019-01-06T17:49:10.470Z,55.63
2019-01-06T17:54:18.772Z,31.37
2019-01-06T17:59:41.192Z,31.40
2019-01-06T18:05:03.505Z,35.77
2019-01-06T18:10:22.068Z,32.63
2019-01-06T18:15:30.486Z,34.30
2019-01-06T18:20:39.510Z,38.53
2019-01-06T18:25:54.193Z,36.17
2019-01-06T18:30:59.949Z,36.83
2019-01-06T18:36:24.423Z,35.53
2019-01-06T18:41:30.297Z,35.40
2019-01-06T18:46:45.390Z,37.27
2019-01-06T18:51:53.927Z,35.85
2019-01-06T18:57:16.054Z,35.90
2019-01-06T19:02:21.821Z,37.67
2019-01-06T19:07:33.918Z,38.90
2019-01-06T19:12:42.864Z,36.70
2019-01-06T19:18:03.366Z,38.17
2019-01-06T19:23:25.712Z,35.73
2019-01-06T19:28:38.618Z,37.77
2019-01-06T19:33:45.608Z,36.80
2019-01-06T19:39:07.448Z,38.60
2019-01-06T19:44:16.530Z,39.00
2019-01-06T19:49:38.550Z,36.70
2019-01-06T19:54:47.254Z,37.27
2019-01-06T20:00:09.822Z,36.00
2019-01-06T20:05:31.968Z,39.58
2019-01-06T20:10:38.269Z,39.20
2019-01-06T20:16:02.049Z,38.77
2019-01-06T20:21:13.488Z,42.13
2019-01-06T20:26:22.077Z,40.87
2019-01-06T20:31:42.793Z,38.43
2019-01-06T20:36:51.657Z,42.00
2019-01-06T20:42:09.465Z,39.15
2019-01-06T20:47:18.166Z,40.10
2019-01-06T20:52:31.932Z,42.13
2019-01-06T20:57:37.922Z,45.95
2019-01-06T21:02:49.823Z,44.70
2019-01-06T21:08:07.869Z,45.80
2019-01-06T21:13:16.858Z,47.03
2019-01-06T21:18:31.566Z,45.50
2019-01-06T21:23:55.721Z,48.07
2019-01-06T21:29:02.998Z,49.83
2019-01-06T21:34:15.038Z,47.37
2019-01-06T21:39:23.775Z,43.93
2019-01-06T21:44:32.523Z,46.70
2019-01-06T21:49:57.026Z,44.77
2019-01-06T21:55:03.376Z,41.73
2019-01-06T22:00:19.570Z,46.23
2019-01-06T22:05:27.967Z,43.73
2019-01-06T22:10:42.955Z,42.07
2019-01-06T22:15:48.942Z,46.80
2019-01-06T22:21:00.877Z,40.92
2019-01-06T22:26:19.164Z,43.10
2019-01-06T22:31:30.602Z,39.37
2019-01-06T22:36:53.024Z,42.98
2019-01-06T22:42:08.403Z,41.20
2019-01-06T22:47:16.887Z,42.77
2019-01-06T22:52:25.844Z,44.23
2019-01-06T22:57:31.859Z,41.20
2019-01-06T23:02:40.326Z,43.27
2019-01-06T23:07:55.148Z,42.77
2019-01-06T23:13:01.117Z,43.17
2019-01-06T23:18:22.091Z,41.50
2019-01-06T23:23:28.378Z,39.80
2019-01-06T23:28:50.385Z,40.83
2019-01-06T23:33:58.745Z,38.60
2019-01-06T23:39:21.428Z,41.93
2019-01-06T23:44:48.403Z,39.03
2019-01-06T23:50:12.621Z,39.63
2019-01-06T23:55:35.073Z,41.43
